Time;durP1;ratioP1;P1;durP2;ratioP2;P2;SDS_P1;SDS_P2;PMS_P1;PMS_P2;Temp;Humidity;BMP_temperature;BMP_pressure;BME280_temperature;BME280_humidity;BME280_pressure;Samples;Min_cycle;Max_cycle;Signal;HPM_P1;HPM_P2
2022/09/11 00:00:37;;;;;;;19.35;10.20;;;;;;;;;;5036789;28;20514;-59
2022/09/11 00:03:04;;;;;;;20.13;11.20;;;;;;;;;;5037345;28;20048;-59
2022/09/11 00:05:30;;;;;;;22.42;11.80;;;;;;;;;;5040734;28;20037;-59
2022/09/11 00:07:56;;;;;;;15.02;8.32;;;;;;;;;;5037062;28;20048;-59
2022/09/11 00:10:23;;;;;;;8.57;4.53;;;;;;;;;;5040363;28;20733;-59
2022/09/11 00:12:50;;;;;;;14.23;6.97;;;;;;;;;;5036714;28;20206;-59
2022/09/11 00:15:16;;;;;;;18.17;9.02;;;;;;;;;;5036598;28;20060;-59
2022/09/11 00:17:43;;;;;;;11.48;7.05;;;;;;;;;;5040687;28;20490;-58
2022/09/11 00:20:09;;;;;;;13.05;8.27;;;;;;;;;;5036355;28;20037;-58
2022/09/11 00:22:35;;;;;;;12.43;7.90;;;;;;;;;;5039735;28;20071;-58
2022/09/11 00:25:01;;;;;;;15.45;7.40;;;;;;;;;;5035244;28;20041;-59
2022/09/11 00:27:27;;;;;;;18.17;9.07;;;;;;;;;;5035750;28;20049;-58
2022/09/11 00:29:53;;;;;;;16.67;9.48;;;;;;;;;;5039257;28;20041;-58
2022/09/11 00:32:19;;;;;;;19.52;10.50;;;;;;;;;;5035895;28;20048;-58
2022/09/11 00:34:46;;;;;;;24.50;10.93;;;;;;;;;;5042226;28;20437;-59
2022/09/11 00:37:12;;;;;;;27.58;10.57;;;;;;;;;;5041728;28;20530;-58
2022/09/11 00:39:38;;;;;;;21.38;10.35;;;;;;;;;;5042819;28;20053;-59
2022/09/11 00:42:04;;;;;;;18.38;10.65;;;;;;;;;;5040266;28;20037;-58
2022/09/11 00:44:31;;;;;;;20.30;10.75;;;;;;;;;;5041275;28;20561;-59
2022/09/11 00:46:59;;;;;;;19.65;10.10;;;;;;;;;;5042975;28;20041;-58
2022/09/11 00:49:46;;;;;;;15.68;10.30;;;;;;;;;;5041837;28;20037;-59
2022/09/11 00:52:14;;;;;;;14.85;8.52;;;;;;;;;;5042519;28;20536;-59
2022/09/11 00:54:40;;;;;;;;;;;;;;;;;;5041349;28;20048;-59
2022/09/11 00:57:08;;;;;;;8.27;4.38;;;;;;;;;;5040563;28;20085;-58
2022/09/11 00:59:35;;;;;;;9.85;5.50;;;;;;;;;;5039695;28;20727;-59
2022/09/11 01:02:01;;;;;;;16.00;7.68;;;;;;;;;;5041173;28;20049;-59
2022/09/11 01:04:28;;;;;;;25.88;9.63;;;;;;;;;;5047260;23;20057;-59
2022/09/11 01:06:56;;;;;;;17.17;8.65;;;;;;;;;;5023903;28;20046;-58
2022/09/11 01:09:23;;;;;;;18.20;9.25;;;;;;;;;;5024137;28;20120;-59
2022/09/11 01:11:53;;;;;;;11.97;7.23;;;;;;;;;;5023115;28;20048;-58
2022/09/11 01:14:27;;;;;;;15.27;7.65;;;;;;;;;;5023528;28;20490;-58
2022/09/11 01:17:03;;;;;;;11.70;7.43;;;;;;;;;;5023613;28;20049;-58
2022/09/11 01:19:44;;;;;;;20.50;5.97;;;;;;;;;;5021107;28;20053;-59
2022/09/11 01:22:19;;;;;;;8.52;5.20;;;;;;;;;;5023527;28;20862;-59
2022/09/11 01:24:55;;;;;;;7.38;5.28;;;;;;;;;;5022762;28;20116;-58
2022/09/11 01:27:38;;;;;;;15.98;6.00;;;;;;;;;;5022854;28;20107;-58
2022/09/11 01:30:07;;;;;;;17.42;6.85;;;;;;;;;;5023519;28;20033;-58
2022/09/11 01:32:47;;;;;;;14.20;6.90;;;;;;;;;;5023066;28;20044;-59
2022/09/11 01:35:19;;;;;;;12.90;7.15;;;;;;;;;;5022124;28;20557;-59
2022/09/11 01:37:57;;;;;;;12.85;7.32;;;;;;;;;;5021779;28;20041;-58
2022/09/11 01:40:27;;;;;;;10.90;7.07;;;;;;;;;;5022433;28;20041;-59
2022/09/11 01:42:58;;;;;;;11.30;6.97;;;;;;;;;;5023161;28;20502;-59
2022/09/11 01:45:25;;;;;;;13.68;7.75;;;;;;;;;;5021115;28;20538;-59
2022/09/11 01:47:52;;;;;;;9.63;6.40;;;;;;;;;;5023111;28;20061;-58
2022/09/11 01:50:19;;;;;;;6.40;4.65;;;;;;;;;;5022764;28;20041;-58
2022/09/11 01:52:49;;;;;;;6.75;4.70;;;;;;;;;;5022886;28;20045;-58
2022/09/11 01:55:18;;;;;;;12.93;6.82;;;;;;;;;;5023225;28;20042;-59
2022/09/11 01:57:47;;;;;;;88.30;10.57;;;;;;;;;;5022616;28;20084;-58
2022/09/11 02:00:14;;;;;;;20.23;8.82;;;;;;;;;;5023068;28;20135;-58
2022/09/11 02:02:44;;;;;;;17.52;10.13;;;;;;;;;;5022781;28;20103;-59
2022/09/11 02:05:14;;;;;;;31.85;10.35;;;;;;;;;;5022198;28;20298;-58
2022/09/11 02:07:44;;;;;;;23.42;11.13;;;;;;;;;;5023087;28;20102;-58
2022/09/11 02:10:13;;;;;;;21.70;12.27;;;;;;;;;;5023273;28;20094;-58
2022/09/11 02:12:42;;;;;;;21.30;11.68;;;;;;;;;;5022356;28;20467;-59
2022/09/11 02:15:10;;;;;;;19.35;10.18;;;;;;;;;;5021737;28;20090;-59
2022/09/11 02:17:42;;;;;;;31.98;12.32;;;;;;;;;;5022352;28;20056;-59
2022/09/11 02:20:09;;;;;;;17.02;10.93;;;;;;;;;;5022569;28;20073;-59
2022/09/11 02:22:36;;;;;;;15.40;9.48;;;;;;;;;;5022776;28;20060;-59
2022/09/11 02:25:02;;;;;;;16.48;10.25;;;;;;;;;;5022695;28;20399;-59
2022/09/11 02:27:30;;;;;;;15.60;9.68;;;;;;;;;;5022484;28;20038;-59
2022/09/11 02:29:57;;;;;;;15.90;9.98;;;;;;;;;;5022874;28;20068;-59
2022/09/11 02:32:25;;;;;;;15.70;10.40;;;;;;;;;;5022995;28;20033;-58
2022/09/11 02:34:54;;;;;;;16.15;10.68;;;;;;;;;;5022496;28;20046;-59
2022/09/11 02:37:37;;;;;;;17.58;10.60;;;;;;;;;;5022209;28;20048;-58
2022/09/11 02:40:18;;;;;;;16.77;10.43;;;;;;;;;;5022741;28;20045;-59
2022/09/11 02:43:01;;;;;;;18.45;10.70;;;;;;;;;;5019316;28;20072;-59
2022/09/11 02:45:28;;;;;;;11.63;7.10;;;;;;;;;;5019067;28;20099;-58
2022/09/11 02:48:04;;;;;;;10.02;6.60;;;;;;;;;;5022571;28;20120;-58
2022/09/11 02:50:40;;;;;;;10.80;7.15;;;;;;;;;;5022359;28;20049;-59
2022/09/11 02:53:11;;;;;;;14.82;8.32;;;;;;;;;;5022022;28;20076;-59
2022/09/11 02:55:44;;;;;;;12.10;8.35;;;;;;;;;;5020896;28;20470;-59
2022/09/11 02:58:17;;;;;;;13.35;8.23;;;;;;;;;;5022127;28;20042;-59
2022/09/11 03:00:46;;;;;;;12.98;8.40;;;;;;;;;;5021916;28;20044;-59
2022/09/11 03:03:13;;;;;;;12.95;7.38;;;;;;;;;;5021935;28;20604;-58
2022/09/11 03:05:39;;;;;;;19.38;10.40;;;;;;;;;;5021374;28;20115;-58
2022/09/11 03:08:06;;;;;;;16.88;9.65;;;;;;;;;;5022288;28;20046;-58
2022/09/11 03:10:33;;;;;;;13.23;8.52;;;;;;;;;;5017281;28;20107;-59
2022/09/11 03:12:59;;;;;;;13.90;9.20;;;;;;;;;;5020493;28;20045;-63
2022/09/11 03:15:26;;;;;;;40.55;9.50;;;;;;;;;;5021628;28;20580;-59
2022/09/11 03:17:52;;;;;;;14.60;8.90;;;;;;;;;;5021598;28;20394;-58
2022/09/11 03:20:19;;;;;;;20.90;10.80;;;;;;;;;;5020936;28;20395;-58
2022/09/11 03:22:45;;;;;;;19.33;10.93;;;;;;;;;;5021451;28;20095;-58
2022/09/11 03:25:12;;;;;;;17.00;10.30;;;;;;;;;;5020881;28;20562;-59
2022/09/11 03:27:38;;;;;;;27.00;10.80;;;;;;;;;;5021197;28;20072;-58
2022/09/11 03:30:05;;;;;;;29.67;11.55;;;;;;;;;;5021592;28;20045;-58
2022/09/11 03:32:32;;;;;;;30.90;12.43;;;;;;;;;;5021314;28;20041;-59
2022/09/11 03:34:58;;;;;;;22.02;12.32;;;;;;;;;;5021883;28;20041;-58
2022/09/11 03:37:25;;;;;;;21.02;12.02;;;;;;;;;;5021870;28;20034;-58
2022/09/11 03:39:51;;;;;;;18.65;11.50;;;;;;;;;;5021189;28;20111;-59
2022/09/11 03:42:18;;;;;;;16.92;10.77;;;;;;;;;;5020910;28;20091;-58
2022/09/11 03:44:44;;;;;;;18.13;11.20;;;;;;;;;;5021184;28;20053;-58
2022/09/11 03:47:10;;;;;;;17.50;11.10;;;;;;;;;;5022053;28;20131;-58
2022/09/11 03:49:37;;;;;;;13.73;8.88;;;;;;;;;;5021233;28;20046;-59
2022/09/11 03:52:03;;;;;;;13.02;8.40;;;;;;;;;;5021606;28;20551;-59
2022/09/11 03:54:30;;;;;;;11.45;8.25;;;;;;;;;;5021503;28;20132;-59
2022/09/11 03:56:57;;;;;;;14.13;8.70;;;;;;;;;;5020554;28;20079;-58
2022/09/11 03:59:24;;;;;;;20.35;9.00;;;;;;;;;;5021450;28;20132;-58
2022/09/11 04:01:51;;;;;;;18.63;9.60;;;;;;;;;;5021039;28;20226;-59
2022/09/11 04:04:17;;;;;;;13.40;8.63;;;;;;;;;;5021466;28;20120;-58
2022/09/11 04:06:44;;;;;;;11.70;7.43;;;;;;;;;;5020937;28;20423;-58
2022/09/11 04:09:10;;;;;;;23.85;8.52;;;;;;;;;;5024431;28;20038;-58
2022/09/11 04:11:37;;;;;;;21.05;8.48;;;;;;;;;;5024466;28;20569;-58
2022/09/11 04:14:04;;;;;;;25.88;7.82;;;;;;;;;;5024826;28;20065;-59
2022/09/11 04:16:31;;;;;;;25.27;8.52;;;;;;;;;;5024362;28;20120;-59
2022/09/11 04:18:58;;;;;;;14.97;7.77;;;;;;;;;;5025738;28;20482;-59
2022/09/11 04:21:26;;;;;;;13.13;7.95;;;;;;;;;;5021971;28;20037;-58
2022/09/11 04:23:54;;;;;;;13.57;6.83;;;;;;;;;;5024587;28;20172;-58
2022/09/11 04:26:21;;;;;;;12.07;7.60;;;;;;;;;;5022749;28;20050;-59
2022/09/11 04:28:47;;;;;;;10.63;7.55;;;;;;;;;;5024549;28;20176;-59
2022/09/11 04:31:14;;;;;;;27.13;10.07;;;;;;;;;;5025127;28;20094;-58
2022/09/11 04:33:41;;;;;;;11.88;7.90;;;;;;;;;;5024797;28;20478;-59
2022/09/11 04:36:08;;;;;;;22.52;8.85;;;;;;;;;;5022841;28;20042;-58
2022/09/11 04:38:35;;;;;;;17.42;9.02;;;;;;;;;;5024872;28;20052;-59
2022/09/11 04:41:03;;;;;;;19.40;8.73;;;;;;;;;;5024048;28;20041;-58
2022/09/11 04:43:30;;;;;;;15.30;8.77;;;;;;;;;;5024340;28;20735;-61
2022/09/11 04:46:01;;;;;;;13.30;8.50;;;;;;;;;;5024858;28;20120;-59
2022/09/11 04:48:27;;;;;;;14.25;8.90;;;;;;;;;;5022522;28;20033;-59
2022/09/11 04:51:00;;;;;;;17.00;9.40;;;;;;;;;;5024307;28;20041;-59
2022/09/11 04:53:27;;;;;;;18.58;9.68;;;;;;;;;;5024359;28;20034;-59
2022/09/11 04:56:01;;;;;;;15.68;9.57;;;;;;;;;;5023301;28;20054;-58
2022/09/11 04:58:28;;;;;;;15.10;10.40;;;;;;;;;;5024685;28;20041;-58
2022/09/11 05:00:54;;;;;;;15.35;9.00;;;;;;;;;;5024572;28;20045;-58
2022/09/11 05:03:20;;;;;;;13.73;9.13;;;;;;;;;;5024277;28;20127;-58
2022/09/11 05:05:46;;;;;;;17.15;9.70;;;;;;;;;;5023637;28;20159;-58
2022/09/11 05:08:12;;;;;;;15.48;9.88;;;;;;;;;;5024339;28;20042;-58
2022/09/11 05:10:38;;;;;;;15.82;9.25;;;;;;;;;;5023018;28;20034;-58
2022/09/11 05:13:05;;;;;;;13.15;8.60;;;;;;;;;;5024153;28;20096;-59
2022/09/11 05:15:31;;;;;;;12.07;8.07;;;;;;;;;;5023518;28;20044;-59
2022/09/11 05:17:57;;;;;;;16.08;9.27;;;;;;;;;;5024314;28;20043;-59
2022/09/11 05:20:23;;;;;;;20.73;8.65;;;;;;;;;;5023987;28;20078;-58
2022/09/11 05:22:50;;;;;;;12.63;8.68;;;;;;;;;;5023443;28;20127;-58
2022/09/11 05:25:17;;;;;;;14.70;8.90;;;;;;;;;;5023101;28;20037;-58
2022/09/11 05:27:43;;;;;;;10.60;6.20;;;;;;;;;;5023379;28;20037;-58
2022/09/11 05:30:10;;;;;;;13.55;8.85;;;;;;;;;;5024168;28;20083;-58
2022/09/11 05:32:36;;;;;;;15.75;10.00;;;;;;;;;;5022568;28;20045;-58
2022/09/11 05:35:02;;;;;;;13.88;8.88;;;;;;;;;;5023730;28;20042;-58
2022/09/11 05:37:28;;;;;;;15.68;9.77;;;;;;;;;;5024054;28;20033;-58
2022/09/11 05:39:54;;;;;;;15.18;10.23;;;;;;;;;;5023483;28;20057;-59
2022/09/11 05:42:21;;;;;;;13.45;9.23;;;;;;;;;;5022130;28;20104;-58
2022/09/11 05:44:47;;;;;;;13.20;8.32;;;;;;;;;;5022320;28;20049;-58
2022/09/11 05:47:13;;;;;;;13.55;8.05;;;;;;;;;;5024199;28;20041;-58
2022/09/11 05:49:39;;;;;;;13.80;8.43;;;;;;;;;;5021874;28;20038;-58
2022/09/11 05:52:06;;;;;;;12.82;8.60;;;;;;;;;;5023095;28;20049;-58
2022/09/11 05:54:32;;;;;;;12.30;8.75;;;;;;;;;;5022891;28;20045;-59
2022/09/11 05:56:59;;;;;;;13.65;8.63;;;;;;;;;;5019917;28;20511;-58
2022/09/11 05:59:26;;;;;;;11.57;8.00;;;;;;;;;;5023622;28;20041;-58
2022/09/11 06:01:52;;;;;;;14.05;9.13;;;;;;;;;;5022257;28;20076;-58
2022/09/11 06:04:18;;;;;;;13.15;8.77;;;;;;;;;;5023256;28;20291;-59
2022/09/11 06:06:48;;;;;;;14.00;9.48;;;;;;;;;;5022857;28;20045;-59
2022/09/11 06:09:14;;;;;;;12.75;8.80;;;;;;;;;;5021529;28;20125;-58
2022/09/11 06:11:40;;;;;;;13.27;9.38;;;;;;;;;;5022003;28;20136;-58
2022/09/11 06:14:07;;;;;;;14.25;9.43;;;;;;;;;;5021514;28;20124;-58
2022/09/11 06:16:34;;;;;;;13.85;9.57;;;;;;;;;;5021771;28;20050;-58
2022/09/11 06:19:02;;;;;;;13.77;9.15;;;;;;;;;;5017303;28;20068;-58
2022/09/11 06:24:34;;;;;;;17.80;10.88;;;;;;;;;;5018113;28;20377;-58
2022/09/11 06:27:01;;;;;;;17.23;10.60;;;;;;;;;;5018666;28;20085;-58
2022/09/11 06:29:27;;;;;;;20.75;10.80;;;;;;;;;;5020087;28;20049;-58
2022/09/11 06:31:53;;;;;;;17.23;10.88;;;;;;;;;;5018952;28;20106;-58
2022/09/11 06:34:20;;;;;;;17.55;10.52;;;;;;;;;;5019327;28;20055;-59
2022/09/11 06:36:47;;;;;;;17.95;11.27;;;;;;;;;;5019782;28;20108;-58
2022/09/11 06:39:13;;;;;;;17.42;10.48;;;;;;;;;;5016646;28;20060;-59
2022/09/11 06:41:39;;;;;;;14.85;10.18;;;;;;;;;;5010578;28;20045;-59
2022/09/11 06:44:06;;;;;;;18.35;10.95;;;;;;;;;;5017687;28;20048;-58
2022/09/11 06:46:32;;;;;;;15.85;10.43;;;;;;;;;;5016945;28;20049;-58
2022/09/11 06:48:58;;;;;;;16.50;11.05;;;;;;;;;;5017902;28;20052;-58
2022/09/11 06:51:25;;;;;;;19.63;11.43;;;;;;;;;;5018016;28;20168;-58
2022/09/11 06:53:56;;;;;;;16.77;11.55;;;;;;;;;;5016911;28;20053;-58
2022/09/11 06:56:22;;;;;;;20.45;12.07;;;;;;;;;;5015626;28;20402;-59
2022/09/11 06:58:49;;;;;;;17.92;11.90;;;;;;;;;;5018727;28;20291;-59
2022/09/11 07:01:16;;;;;;;19.95;11.68;;;;;;;;;;5019578;28;20498;-59
2022/09/11 07:03:44;;;;;;;18.08;11.55;;;;;;;;;;5018551;28;20072;-59
2022/09/11 07:06:11;;;;;;;18.80;11.45;;;;;;;;;;5019235;28;20751;-59
2022/09/11 07:08:38;;;;;;;22.35;12.00;;;;;;;;;;5018340;28;20053;-59
2022/09/11 07:11:05;;;;;;;21.20;12.07;;;;;;;;;;5017873;28;20095;-59
2022/09/11 07:13:31;;;;;;;19.38;12.60;;;;;;;;;;5018204;28;20041;-59
2022/09/11 07:16:02;;;;;;;21.83;13.55;;;;;;;;;;5019279;28;20130;-59
2022/09/11 07:18:33;;;;;;;23.83;12.52;;;;;;;;;;5019038;28;20045;-59
2022/09/11 07:20:59;;;;;;;21.42;12.98;;;;;;;;;;5018680;28;20797;-63
2022/09/11 07:23:25;;;;;;;20.92;12.65;;;;;;;;;;5019260;28;20128;-58
2022/09/11 07:25:52;;;;;;;20.38;11.52;;;;;;;;;;5017182;28;20049;-59
2022/09/11 07:28:18;;;;;;;20.60;12.25;;;;;;;;;;5018953;28;20049;-59
2022/09/11 07:30:45;;;;;;;20.67;10.98;;;;;;;;;;5019355;28;20038;-59
2022/09/11 07:33:11;;;;;;;18.63;11.80;;;;;;;;;;5018851;28;20045;-60
2022/09/11 07:35:37;;;;;;;16.80;10.70;;;;;;;;;;5018827;28;20068;-59
2022/09/11 07:38:04;;;;;;;16.15;10.43;;;;;;;;;;5018944;28;20047;-59
2022/09/11 07:40:30;;;;;;;15.30;9.38;;;;;;;;;;5017659;28;20372;-59
2022/09/11 07:42:56;;;;;;;19.20;11.60;;;;;;;;;;5020722;28;20034;-58
2022/09/11 07:45:22;;;;;;;16.02;10.93;;;;;;;;;;5022107;28;20038;-59
2022/09/11 07:47:48;;;;;;;18.00;11.02;;;;;;;;;;5023182;28;20057;-58
2022/09/11 07:50:16;;;;;;;15.32;9.73;;;;;;;;;;5022780;28;20049;-58
2022/09/11 07:52:43;;;;;;;18.60;11.55;;;;;;;;;;5037261;28;20362;-59
2022/09/11 07:55:09;;;;;;;15.13;11.00;;;;;;;;;;5021124;28;20049;-59
2022/09/11 07:57:35;;;;;;;17.80;11.20;;;;;;;;;;5021100;28;20157;-59
2022/09/11 08:00:01;;;;;;;18.45;10.65;;;;;;;;;;5021305;28;20041;-60
2022/09/11 08:02:28;;;;;;;17.45;10.93;;;;;;;;;;5020963;28;20048;-59
2022/09/11 08:04:54;;;;;;;16.27;10.65;;;;;;;;;;5023880;28;20053;-59
2022/09/11 08:07:21;;;;;;;16.17;10.27;;;;;;;;;;5022247;28;20096;-59
2022/09/11 08:09:48;;;;;;;18.30;11.07;;;;;;;;;;5020920;28;20053;-59
2022/09/11 08:12:14;;;;;;;14.40;9.75;;;;;;;;;;5021379;28;20049;-59
2022/09/11 08:14:40;;;;;;;16.42;11.02;;;;;;;;;;5022073;28;20049;-59
2022/09/11 08:17:07;;;;;;;18.95;10.00;;;;;;;;;;5022104;28;20475;-59
2022/09/11 08:19:33;;;;;;;17.65;11.40;;;;;;;;;;5022049;28;20055;-59
2022/09/11 08:21:59;;;;;;;14.05;9.95;;;;;;;;;;5022925;28;20127;-62
2022/09/11 08:24:26;;;;;;;15.07;10.30;;;;;;;;;;5022722;28;20099;-60
2022/09/11 08:26:52;;;;;;;14.27;8.70;;;;;;;;;;5023145;28;20113;-60
2022/09/11 08:29:18;;;;;;;14.13;9.07;;;;;;;;;;5021026;28;20132;-60
2022/09/11 08:31:44;;;;;;;11.68;8.57;;;;;;;;;;5019928;28;20050;-60
2022/09/11 08:34:10;;;;;;;11.57;8.25;;;;;;;;;;5020650;28;20049;-60
2022/09/11 08:36:37;;;;;;;10.20;7.38;;;;;;;;;;5020570;28;20033;-60
2022/09/11 08:39:04;;;;;;;10.23;5.05;;;;;;;;;;5021623;28;20471;-60
2022/09/11 08:41:33;;;;;;;9.23;5.15;;;;;;;;;;5019282;28;20045;-62
2022/09/11 08:44:03;;;;;;;4.97;3.83;;;;;;;;;;5021283;28;20128;-63
2022/09/11 08:46:31;;;;;;;9.23;4.03;;;;;;;;;;5020612;28;20049;-60
2022/09/11 08:49:14;;;;;;;7.50;4.03;;;;;;;;;;5020500;28;20098;-60
2022/09/11 08:51:41;;;;;;;6.78;3.95;;;;;;;;;;5021014;28;20045;-59
2022/09/11 08:54:07;;;;;;;6.57;3.75;;;;;;;;;;5020096;28;20237;-60
2022/09/11 08:56:35;;;;;;;10.80;4.72;;;;;;;;;;5019959;28;20111;-60
2022/09/11 08:59:05;;;;;;;10.70;5.15;;;;;;;;;;5019678;28;20095;-61
2022/09/11 09:01:32;;;;;;;10.45;5.25;;;;;;;;;;5017230;28;20076;-60
2022/09/11 09:04:02;;;;;;;7.43;4.20;;;;;;;;;;5019949;28;20236;-60
2022/09/11 09:06:38;;;;;;;8.82;4.15;;;;;;;;;;5020602;28;20077;-60
2022/09/11 09:09:13;;;;;;;16.13;3.67;;;;;;;;;;5020367;28;20088;-60
2022/09/11 09:11:43;;;;;;;6.90;3.20;;;;;;;;;;5022730;28;20131;-60
2022/09/11 09:14:16;;;;;;;10.52;3.00;;;;;;;;;;5020221;28;20474;-60
2022/09/11 09:16:46;;;;;;;8.07;2.92;;;;;;;;;;5019937;28;20045;-60
2022/09/11 09:19:15;;;;;;;8.15;3.38;;;;;;;;;;5018675;28;20481;-60
2022/09/11 09:21:44;;;;;;;5.90;3.60;;;;;;;;;;5019362;28;20099;-60
2022/09/11 09:24:18;;;;;;;13.55;3.90;;;;;;;;;;5019528;28;20033;-61
2022/09/11 09:26:47;;;;;;;5.13;2.90;;;;;;;;;;5018838;28;20072;-60
2022/09/11 09:29:17;;;;;;;6.68;2.50;;;;;;;;;;5019369;28;20203;-59
2022/09/11 09:31:44;;;;;;;85.55;7.28;;;;;;;;;;5019114;28;20052;-60
2022/09/11 09:34:14;;;;;;;7.53;2.55;;;;;;;;;;5020283;28;20669;-59
2022/09/11 09:36:49;;;;;;;5.30;2.28;;;;;;;;;;5019722;28;20030;-59
2022/09/11 09:39:17;;;;;;;5.47;3.42;;;;;;;;;;5017732;28;20291;-59
2022/09/11 09:41:53;;;;;;;5.97;3.00;;;;;;;;;;5019336;28;20076;-59
2022/09/11 09:44:21;;;;;;;6.25;2.53;;;;;;;;;;5018727;28;20099;-59
2022/09/11 09:46:49;;;;;;;6.53;1.92;;;;;;;;;;5019486;28;20120;-59
2022/09/11 09:49:18;;;;;;;5.40;2.67;;;;;;;;;;5019773;28;20076;-59
2022/09/11 09:51:44;;;;;;;10.25;2.30;;;;;;;;;;5018850;28;20427;-59
2022/09/11 09:54:14;;;;;;;4.38;2.17;;;;;;;;;;5018658;28;20122;-59
2022/09/11 09:56:42;;;;;;;2.22;1.58;;;;;;;;;;5019256;28;20590;-59
2022/09/11 09:59:08;;;;;;;5.28;1.40;;;;;;;;;;5019961;28;20113;-59
2022/09/11 10:01:39;;;;;;;3.50;1.80;;;;;;;;;;5018944;28;20071;-59
2022/09/11 10:04:16;;;;;;;4.82;1.67;;;;;;;;;;5019294;28;20037;-59
2022/09/11 10:06:44;;;;;;;5.47;1.80;;;;;;;;;;5017932;28;20142;-59
2022/09/11 10:09:18;;;;;;;4.97;1.33;;;;;;;;;;5018112;28;20518;-59
2022/09/11 10:11:45;;;;;;;4.60;1.98;;;;;;;;;;5018599;28;20045;-59
2022/09/11 10:14:19;;;;;;;5.03;1.73;;;;;;;;;;5018807;28;20042;-59
2022/09/11 10:16:48;;;;;;;7.78;1.73;;;;;;;;;;5018859;28;20487;-58
2022/09/11 10:19:34;;;;;;;4.28;1.52;;;;;;;;;;5018720;28;20120;-59
2022/09/11 10:22:21;;;;;;;2.95;1.48;;;;;;;;;;5018303;28;20069;-60
2022/09/11 10:24:59;;;;;;;11.75;1.70;;;;;;;;;;5018286;28;20053;-59
2022/09/11 10:27:26;;;;;;;5.60;1.45;;;;;;;;;;5019219;28;20041;-59
2022/09/11 10:29:53;;;;;;;3.95;1.30;;;;;;;;;;5017950;28;20049;-59
2022/09/11 10:32:20;;;;;;;4.82;1.40;;;;;;;;;;5016174;28;20033;-59
2022/09/11 10:34:47;;;;;;;4.35;2.17;;;;;;;;;;5017539;28;20056;-59
2022/09/11 10:37:13;;;;;;;3.27;1.43;;;;;;;;;;5017863;28;20041;-59
2022/09/11 10:39:40;;;;;;;2.58;1.38;;;;;;;;;;5016594;28;20529;-58
2022/09/11 10:42:13;;;;;;;4.27;1.40;;;;;;;;;;5018520;28;20045;-58
2022/09/11 10:44:41;;;;;;;2.20;1.20;;;;;;;;;;5017104;28;20586;-58
2022/09/11 10:47:16;;;;;;;3.25;1.33;;;;;;;;;;5018721;28;20798;-58
2022/09/11 10:49:43;;;;;;;8.40;1.67;;;;;;;;;;5017697;28;20051;-58
2022/09/11 10:52:09;;;;;;;4.45;1.95;;;;;;;;;;5017971;28;20045;-58
2022/09/11 10:54:44;;;;;;;2.85;1.30;;;;;;;;;;5016954;28;20060;-59
2022/09/11 10:57:15;;;;;;;2.25;1.42;;;;;;;;;;5016213;28;20046;-58
2022/09/11 10:59:54;;;;;;;3.53;1.02;;;;;;;;;;5018603;28;20041;-58
2022/09/11 11:02:27;;;;;;;2.47;1.05;;;;;;;;;;5018080;28;20068;-58
2022/09/11 11:04:54;;;;;;;2.03;1.20;;;;;;;;;;5014655;28;20076;-58
2022/09/11 11:07:36;;;;;;;6.47;1.35;;;;;;;;;;5013497;28;20521;-56
2022/09/11 11:10:09;;;;;;;2.00;1.13;;;;;;;;;;5015464;28;20049;-59
2022/09/11 11:12:41;;;;;;;3.33;1.17;;;;;;;;;;5016465;28;20049;-58
2022/09/11 11:15:21;;;;;;;4.80;1.50;;;;;;;;;;5017416;28;20148;-58
2022/09/11 11:17:53;;;;;;;2.38;1.10;;;;;;;;;;5016508;28;20045;-59
2022/09/11 11:20:31;;;;;;;4.75;1.50;;;;;;;;;;5016033;28;20387;-58
2022/09/11 11:23:06;;;;;;;2.92;1.25;;;;;;;;;;5018055;28;20128;-58
2022/09/11 11:25:45;;;;;;;3.67;1.20;;;;;;;;;;5015602;28;20048;-58
2022/09/11 11:28:34;;;;;;;3.83;1.50;;;;;;;;;;5015025;28;20060;-58
2022/09/11 11:31:19;;;;;;;2.10;1.38;;;;;;;;;;5014879;28;20049;-58
2022/09/11 11:34:08;;;;;;;2.40;1.67;;;;;;;;;;5017457;28;20041;-58
2022/09/11 11:36:34;;;;;;;3.97;1.38;;;;;;;;;;5016598;28;20219;-58
2022/09/11 11:39:07;;;;;;;5.05;1.20;;;;;;;;;;5016391;28;20049;-59
2022/09/11 11:41:37;;;;;;;6.00;1.50;;;;;;;;;;5016739;28;20103;-58
2022/09/11 11:44:06;;;;;;;4.57;1.40;;;;;;;;;;5016464;28;20643;-59
2022/09/11 11:46:41;;;;;;;3.75;1.42;;;;;;;;;;5015425;28;20124;-59
2022/09/11 11:49:23;;;;;;;2.03;1.27;;;;;;;;;;5015014;28;20042;-58
2022/09/11 11:51:51;;;;;;;2.75;1.30;;;;;;;;;;5016572;28;20049;-58
2022/09/11 11:54:22;;;;;;;6.00;2.00;;;;;;;;;;5015963;28;20045;-58
2022/09/11 11:56:50;;;;;;;2.90;1.90;;;;;;;;;;5011756;28;20154;-58
2022/09/11 11:59:17;;;;;;;3.30;1.85;;;;;;;;;;5016490;28;20128;-58
2022/09/11 12:01:55;;;;;;;4.18;1.70;;;;;;;;;;5016675;28;20057;-58
2022/09/11 12:04:41;;;;;;;7.70;2.03;;;;;;;;;;5016529;28;20092;-58
2022/09/11 12:07:15;;;;;;;4.40;1.90;;;;;;;;;;5017594;28;20050;-59
2022/09/11 12:09:48;;;;;;;3.45;1.75;;;;;;;;;;5015766;28;20046;-59
2022/09/11 12:12:15;;;;;;;4.03;2.17;;;;;;;;;;5018220;28;20045;-59
2022/09/11 12:14:48;;;;;;;5.53;1.80;;;;;;;;;;5018707;28;20041;-59
2022/09/11 12:17:16;;;;;;;6.00;2.13;;;;;;;;;;5018746;28;20131;-59
2022/09/11 12:20:03;;;;;;;3.08;1.77;;;;;;;;;;5018478;28;20121;-59
2022/09/11 12:22:37;;;;;;;4.93;2.13;;;;;;;;;;5018858;28;20149;-61
2022/09/11 12:25:03;;;;;;;3.33;1.70;;;;;;;;;;5015909;28;20075;-59
2022/09/11 12:27:36;;;;;;;7.70;1.90;;;;;;;;;;5016863;28;20049;-59
2022/09/11 12:30:08;;;;;;;7.63;2.00;;;;;;;;;;5018959;28;20096;-60
2022/09/11 12:32:42;;;;;;;6.50;1.83;;;;;;;;;;5020210;28;20041;-59
2022/09/11 12:35:24;;;;;;;5.38;1.80;;;;;;;;;;5020937;28;20100;-59
2022/09/11 12:37:56;;;;;;;4.22;2.08;;;;;;;;;;5020533;28;20041;-59
2022/09/11 12:40:24;;;;;;;7.07;1.90;;;;;;;;;;5021508;28;20049;-59
2022/09/11 12:42:57;;;;;;;5.13;2.10;;;;;;;;;;5021881;28;20046;-59
2022/09/11 12:45:31;;;;;;;3.30;1.42;;;;;;;;;;5019833;28;20136;-58
2022/09/11 12:48:02;;;;;;;3.53;1.85;;;;;;;;;;5022320;28;20435;-59
2022/09/11 12:50:28;;;;;;;3.40;1.75;;;;;;;;;;5020005;28;20126;-59
2022/09/11 12:53:01;;;;;;;7.15;2.38;;;;;;;;;;5020590;28;20473;-59
2022/09/11 12:55:27;;;;;;;3.22;1.30;;;;;;;;;;5017574;28;20049;-60
2022/09/11 12:57:53;;;;;;;1.98;1.30;;;;;;;;;;5016337;28;20046;-59
2022/09/11 13:00:23;;;;;;;3.15;1.60;;;;;;;;;;5017696;28;20160;-59
2022/09/11 13:02:54;;;;;;;3.63;1.58;;;;;;;;;;5021522;28;20592;-59
2022/09/11 13:05:27;;;;;;;2.88;1.38;;;;;;;;;;5023894;28;20076;-59
2022/09/11 13:07:55;;;;;;;5.75;1.67;;;;;;;;;;5020301;28;20487;-59
2022/09/11 13:10:29;;;;;;;3.13;1.52;;;;;;;;;;5023306;28;20067;-59
2022/09/11 13:12:56;;;;;;;4.03;1.70;;;;;;;;;;5022134;28;20045;-59
2022/09/11 13:15:35;;;;;;;3.22;1.60;;;;;;;;;;5021571;28;20041;-59
2022/09/11 13:18:01;;;;;;;6.00;1.77;;;;;;;;;;5019867;28;20057;-59
2022/09/11 13:20:28;;;;;;;3.85;1.65;;;;;;;;;;5022106;28;20049;-59
2022/09/11 13:23:10;;;;;;;2.77;1.60;;;;;;;;;;5017609;28;20115;-59
2022/09/11 13:25:39;;;;;;;7.20;1.67;;;;;;;;;;5020184;28;20804;-60
2022/09/11 13:28:06;;;;;;;5.68;1.80;;;;;;;;;;5018715;28;20084;-59
2022/09/11 13:30:33;;;;;;;4.32;1.70;;;;;;;;;;5021036;28;20095;-60
2022/09/11 13:33:05;;;;;;;2.78;1.60;;;;;;;;;;5023541;28;20079;-59
2022/09/11 13:35:32;;;;;;;4.28;1.45;;;;;;;;;;5023002;28;20612;-60
2022/09/11 13:38:01;;;;;;;4.68;1.70;;;;;;;;;;5022590;28;20132;-59
2022/09/11 13:40:30;;;;;;;2.50;1.10;;;;;;;;;;5019700;28;20120;-59
2022/09/11 13:42:58;;;;;;;6.90;2.13;;;;;;;;;;5020243;28;20099;-59
2022/09/11 13:45:27;;;;;;;2.40;1.63;;;;;;;;;;5022697;28;20080;-59
2022/09/11 13:47:53;;;;;;;2.30;1.30;;;;;;;;;;5020792;28;20045;-59
2022/09/11 13:50:22;;;;;;;3.63;1.80;;;;;;;;;;5020706;28;21183;-59
2022/09/11 13:52:48;;;;;;;;;;;;;;;;;;5023640;28;20099;-60
2022/09/11 13:55:17;;;;;;;10.98;2.25;;;;;;;;;;5019920;28;20826;-59
2022/09/11 13:57:52;;;;;;;3.63;1.60;;;;;;;;;;5020442;28;20046;-59
2022/09/11 14:00:38;;;;;;;2.33;1.30;;;;;;;;;;5020951;28;20037;-59
2022/09/11 14:03:05;;;;;;;6.03;1.30;;;;;;;;;;5022235;28;20045;-59
2022/09/11 14:05:32;;;;;;;3.33;1.58;;;;;;;;;;5020608;28;20045;-59
2022/09/11 14:08:06;;;;;;;4.00;1.85;;;;;;;;;;5020739;28;20081;-59
2022/09/11 14:10:46;;;;;;;3.80;1.75;;;;;;;;;;5021168;28;20053;-63
2022/09/11 14:13:17;;;;;;;2.83;1.55;;;;;;;;;;5017134;28;20085;-59
2022/09/11 14:15:48;;;;;;;2.40;1.50;;;;;;;;;;5020215;28;20622;-59
2022/09/11 14:18:28;;;;;;;3.63;1.23;;;;;;;;;;5020654;28;20049;-59
2022/09/11 14:20:55;;;;;;;5.25;1.48;;;;;;;;;;5022306;28;20515;-59
2022/09/11 14:23:24;;;;;;;3.80;1.77;;;;;;;;;;5019744;28;20485;-60
2022/09/11 14:26:04;;;;;;;4.10;1.60;;;;;;;;;;5020449;28;20041;-59
2022/09/11 14:28:41;;;;;;;3.65;1.73;;;;;;;;;;5016926;28;20048;-60
2022/09/11 14:31:09;;;;;;;4.75;1.58;;;;;;;;;;5020646;28;20045;-59
2022/09/11 14:33:36;;;;;;;2.53;1.42;;;;;;;;;;5019353;28;20142;-59
2022/09/11 14:36:04;;;;;;;5.30;1.55;;;;;;;;;;5024752;28;20041;-60
2022/09/11 14:38:31;;;;;;;5.47;1.30;;;;;;;;;;5019469;28;20084;-62
2022/09/11 14:40:58;;;;;;;5.15;1.73;;;;;;;;;;5017262;28;20041;-59
2022/09/11 14:43:30;;;;;;;4.75;1.33;;;;;;;;;;5018633;28;20555;-59
2022/09/11 14:45:57;;;;;;;5.47;1.50;;;;;;;;;;5020536;28;20084;-58
2022/09/11 14:48:24;;;;;;;5.40;1.50;;;;;;;;;;5019873;28;20041;-58